createdAt,value
2022-09-23T08:53:32.776Z,68.51
2022-09-23T08:56:35.580Z,68.28
2022-09-23T08:59:39.657Z,68.46
2022-09-23T09:02:42.885Z,68.37
2022-09-23T09:05:53.716Z,66.94
2022-09-23T09:08:58.159Z,66.41
2022-09-23T09:12:20.588Z,64.96
2022-09-23T09:15:27.488Z,65.75
2022-09-23T09:18:30.077Z,64.00
2022-09-23T09:21:34.274Z,64.06
2022-09-23T09:24:36.840Z,62.83
2022-09-23T09:27:39.744Z,62.56
2022-09-23T09:30:47.735Z,61.18
2022-09-23T09:41:50.419Z,61.74
2022-09-23T09:44:59.236Z,62.05
2022-09-23T09:48:24.887Z,62.91
2022-09-23T09:51:28.367Z,61.50
2022-09-23T10:02:38.259Z,59.71
2022-09-23T10:05:47.732Z,60.11
2022-09-23T10:25:04.166Z,59.17
2022-09-23T10:44:04.508Z,56.15
2022-09-23T10:47:26.645Z,56.92
2022-09-23T10:50:33.351Z,55.54
2022-09-23T11:01:19.445Z,53.63
2022-09-23T11:09:00.701Z,52.96
2022-09-23T11:12:10.462Z,53.99
2022-09-23T11:15:45.831Z,49.26
2022-09-23T11:18:50.008Z,48.02
2022-09-23T11:21:57.231Z,47.53
2022-09-23T11:25:03.389Z,48.88
2022-09-23T11:28:25.574Z,49.30
2022-09-23T11:31:34.514Z,47.72
2022-09-23T11:34:45.402Z,45.79
2022-09-23T11:37:49.551Z,44.82
2022-09-23T11:40:54.931Z,43.25
2022-09-23T11:48:02.001Z,36.75
2022-09-23T11:51:18.858Z,36.97
2022-09-23T11:54:22.934Z,36.08
2022-09-23T11:57:49.368Z,35.33
2022-09-23T12:01:00.864Z,32.13
2022-09-23T12:04:20.389Z,32.44
2022-09-23T12:07:29.743Z,33.01
2022-09-23T12:10:57.002Z,31.90
2022-09-23T12:14:22.090Z,29.34
2022-09-23T12:17:28.153Z,30.73
2022-09-23T12:24:44.255Z,32.45
2022-09-23T12:27:52.128Z,38.46
2022-09-23T12:30:56.099Z,37.93
2022-09-23T12:34:06.145Z,40.93
2022-09-23T12:37:11.766Z,43.45
2022-09-23T12:40:32.075Z,41.94
2022-09-23T12:43:39.551Z,43.84
2022-09-23T12:46:43.600Z,44.60
2022-09-23T12:49:46.203Z,42.83
2022-09-23T12:52:49.567Z,43.64
2022-09-23T12:55:53.177Z,44.08
2022-09-23T12:58:59.939Z,42.86
2022-09-23T13:02:13.714Z,39.59
2022-09-23T13:05:36.914Z,35.98
2022-09-23T13:08:44.627Z,34.30
2022-09-23T13:12:06.398Z,31.64
2022-09-23T13:15:33.191Z,33.96
2022-09-23T13:18:52.739Z,37.73
2022-09-23T13:22:32.148Z,37.26
2022-09-23T13:25:37.341Z,35.76
2022-09-23T13:28:56.831Z,37.58
2022-09-23T13:31:59.513Z,37.25
2022-09-23T13:46:25.979Z,37.93
2022-09-23T13:49:31.174Z,38.24
2022-09-23T13:52:34.002Z,38.10
2022-09-23T13:55:37.798Z,37.11
2022-09-23T13:58:40.665Z,31.99
2022-09-23T14:01:43.676Z,33.78
2022-09-23T14:04:46.809Z,35.81
2022-09-23T14:07:50.274Z,36.59
2022-09-23T14:10:53.791Z,37.41
2022-09-23T14:13:57.656Z,37.43
2022-09-23T14:17:00.664Z,38.37
2022-09-23T14:20:03.263Z,37.49
2022-09-23T14:23:07.002Z,38.44
2022-09-23T14:26:09.556Z,41.26
2022-09-23T14:29:16.455Z,40.09
2022-09-23T14:32:24.774Z,39.76
2022-09-23T14:35:28.519Z,39.72
2022-09-23T14:38:50.326Z,38.97
2022-09-23T14:41:53.372Z,40.00
2022-09-23T14:44:57.255Z,39.98
2022-09-23T14:48:00.877Z,42.66
2022-09-23T14:51:04.573Z,42.99
2022-09-23T14:54:23.370Z,43.64
2022-09-23T14:57:27.277Z,45.03
2022-09-23T15:00:31.334Z,47.12
2022-09-23T15:03:33.971Z,47.61
2022-09-23T15:06:39.599Z,47.97
2022-09-23T15:09:42.587Z,47.88
2022-09-23T15:12:45.961Z,48.62
2022-09-23T15:15:48.874Z,44.02
2022-09-23T15:19:00.973Z,37.32
2022-09-23T15:22:06.943Z,28.93
2022-09-23T15:25:26.022Z,25.04
2022-09-23T15:28:28.686Z,23.57
2022-09-23T15:31:33.144Z,23.83
2022-09-23T15:34:36.496Z,21.83
2022-09-23T15:37:39.942Z,19.95
2022-09-23T15:40:43.616Z,20.79
2022-09-23T15:43:48.562Z,20.94
2022-09-23T15:46:51.595Z,22.11
2022-09-23T15:49:55.828Z,23.16
2022-09-23T15:52:59.399Z,23.17
2022-09-23T15:56:02.674Z,22.38
2022-09-23T15:59:05.255Z,22.83
2022-09-23T16:02:13.487Z,24.05
2022-09-23T16:05:18.623Z,22.48
2022-09-23T16:08:24.065Z,23.56
2022-09-23T16:11:29.937Z,23.62
2022-09-23T16:14:45.906Z,23.73
2022-09-23T16:17:48.686Z,27.05
2022-09-23T16:20:51.532Z,26.62
2022-09-23T16:23:55.534Z,28.04
2022-09-23T16:27:00.109Z,29.17
2022-09-23T16:30:03.428Z,30.78
2022-09-23T16:33:06.405Z,33.52
2022-09-23T16:36:31.234Z,38.48
2022-09-23T16:39:33.940Z,41.87
2022-09-23T16:42:38.432Z,44.82
2022-09-23T16:45:41.764Z,46.29
2022-09-23T16:48:51.371Z,48.56
2022-09-23T16:52:04.550Z,49.42
2022-09-23T16:55:18.432Z,49.83
2022-09-23T16:58:21.548Z,51.65
2022-09-23T17:01:45.105Z,51.09
2022-09-23T17:04:48.488Z,51.10
2022-09-23T17:07:52.159Z,51.28
2022-09-23T17:11:14.845Z,51.45
2022-09-23T17:25:30.280Z,56.07
2022-09-23T17:49:35.578Z,57.71
2022-09-23T17:52:39.751Z,57.90
2022-09-23T17:55:56.008Z,57.52
2022-09-23T17:59:05.770Z,57.33
2022-09-23T18:02:15.534Z,57.26
2022-09-23T18:05:19.514Z,59.75
2022-09-23T18:08:22.334Z,59.27
2022-09-23T18:11:29.880Z,60.63
2022-09-23T18:14:32.989Z,61.79
2022-09-23T18:17:39.092Z,62.33
2022-09-23T18:21:05.129Z,62.25
2022-09-23T18:27:41.773Z,59.15
2022-09-23T18:30:57.999Z,57.32
2022-09-23T18:34:05.107Z,58.07
2022-09-23T18:37:15.632Z,59.93
2022-09-23T18:40:19.504Z,60.75
2022-09-23T18:43:32.072Z,61.30
2022-09-23T18:46:38.497Z,61.18
2022-09-23T18:50:01.655Z,60.98
2022-09-23T18:53:05.279Z,59.20
2022-09-23T18:56:13.205Z,58.32
2022-09-23T18:59:17.851Z,58.11
2022-09-23T19:02:23.143Z,59.77
2022-09-23T19:05:39.835Z,60.05
2022-09-23T19:08:43.195Z,60.85
2022-09-23T19:11:45.994Z,61.65
2022-09-23T19:14:49.060Z,62.04
2022-09-23T19:17:59.053Z,63.17
2022-09-23T19:21:09.859Z,63.30
2022-09-23T19:24:16.186Z,63.58
2022-09-23T19:27:19.701Z,62.60
2022-09-23T19:30:22.966Z,60.25
2022-09-23T19:33:29.418Z,59.84
2022-09-23T19:36:33.269Z,62.07
2022-09-23T19:39:40.969Z,63.24
2022-09-23T19:42:43.650Z,64.44
2022-09-23T19:45:52.841Z,64.88
2022-09-23T19:48:56.064Z,65.29
2022-09-23T19:51:59.394Z,58.78
2022-09-23T19:55:02.122Z,58.00
2022-09-23T19:58:05.417Z,58.77
2022-09-23T20:01:08.602Z,60.73
2022-09-23T20:04:12.877Z,61.66
2022-09-23T20:07:15.801Z,62.74
2022-09-23T20:10:19.706Z,65.58
2022-09-23T20:13:22.551Z,66.35
2022-09-23T20:16:37.084Z,66.10
2022-09-23T20:19:42.741Z,65.94
2022-09-23T20:22:48.261Z,66.66
2022-09-23T20:26:16.484Z,66.65
2022-09-23T20:29:19.706Z,66.36
2022-09-23T20:32:25.834Z,66.68
2022-09-23T20:35:33.160Z,68.09
2022-09-23T20:38:36.246Z,66.62
2022-09-23T20:41:39.498Z,66.85
2022-09-23T20:44:43.502Z,68.41
2022-09-23T20:47:46.702Z,69.45
2022-09-23T20:50:52.671Z,70.21
2022-09-23T20:54:00.050Z,70.76
2022-09-23T20:57:02.909Z,70.58
2022-09-23T21:00:07.790Z,72.12
2022-09-23T21:03:13.621Z,72.18
2022-09-23T21:06:17.269Z,72.18
2022-09-23T21:09:22.961Z,71.87
2022-09-23T21:12:25.878Z,70.48
2022-09-23T21:15:28.451Z,70.34
2022-09-23T21:18:31.561Z,70.81
2022-09-23T21:21:34.695Z,71.03
2022-09-23T21:25:16.064Z,71.00
2022-09-23T21:28:02.223Z,70.21
2022-09-23T21:31:06.204Z,69.08
2022-09-23T21:34:09.684Z,69.91
2022-09-23T21:37:13.023Z,69.48
2022-09-23T21:40:34.151Z,69.70
2022-09-23T21:43:38.640Z,70.33
2022-09-23T21:46:41.343Z,71.63
2022-09-23T21:49:48.464Z,71.71
2022-09-23T21:52:53.697Z,71.64
2022-09-23T21:56:03.735Z,72.01
2022-09-23T21:59:11.793Z,72.16
2022-09-23T22:02:16.035Z,72.71
2022-09-23T22:05:19.656Z,72.78
2022-09-23T22:08:22.286Z,72.15
2022-09-23T22:11:44.776Z,70.94
2022-09-23T22:14:48.049Z,69.91
2022-09-23T22:17:52.649Z,67.73
2022-09-23T22:20:58.758Z,67.74
2022-09-23T22:24:02.039Z,68.50
2022-09-23T22:27:04.839Z,69.03
2022-09-23T22:30:27.764Z,68.69
2022-09-23T22:33:30.511Z,67.10
2022-09-23T22:36:33.827Z,65.36
2022-09-23T22:39:36.423Z,63.08
2022-09-23T22:42:40.968Z,63.44
2022-09-23T22:45:48.852Z,64.67
2022-09-23T22:48:54.989Z,65.55
2022-09-23T22:51:57.771Z,65.80
2022-09-23T22:55:00.837Z,66.30
2022-09-23T22:58:21.312Z,67.07
2022-09-23T23:01:27.464Z,67.40
2022-09-23T23:04:30.238Z,69.52
2022-09-23T23:07:35.047Z,70.74
2022-09-23T23:10:37.803Z,71.00
2022-09-23T23:13:43.648Z,71.44
2022-09-23T23:16:46.451Z,71.98
2022-09-23T23:19:50.716Z,72.70
2022-09-23T23:22:53.408Z,73.45
2022-09-23T23:25:56.499Z,73.00
2022-09-23T23:28:59.422Z,73.56
2022-09-23T23:32:02.681Z,75.11
2022-09-23T23:35:06.436Z,73.27
2022-09-23T23:38:12.703Z,72.31
2022-09-23T23:41:17.812Z,73.35
2022-09-23T23:44:20.799Z,75.49
2022-09-23T23:47:24.577Z,76.10
2022-09-23T23:50:27.633Z,75.53
2022-09-23T23:53:30.986Z,74.56
2022-09-23T23:56:33.865Z,74.24
2022-09-23T23:59:36.466Z,73.92
